Terminal Aerodrome Forecast
Issued by NWS Duluth, MN

Home | Current Version | Previous Version | Text Only | Print | Product List | Glossary On
Versions: 1 2 3 4 5 6 7 8 9 10 11 12 13 14 15 16 17 18 19 20 21 22 23 24 25 26 27
000
FTUS43 KDLH 222106 AAB
TAFDLH
TAF AMD
KDLH 222106Z 2221/2318 24012G19KT P6SM FEW150
     FM222300 22008KT P6SM SKC
     FM230300 20006KT P6SM BKN120 WS020/21035KT
     FM230900 21008KT P6SM BKN060
     FM231500 26008KT P6SM BKN070=

USA.gov is the U.S. government's official web portal to all federal, state and local government web resources and services.